Time;durP1;ratioP1;P1;durP2;ratioP2;P2;SDS_P1;SDS_P2;PMS_P1;PMS_P2;Temp;Humidity;BMP_temperature;BMP_pressure;BME280_temperature;BME280_humidity;BME280_pressure;Samples;Min_cycle;Max_cycle;Signal;HPM_P1;HPM_P2
2023/07/19 00:01:37;;;;;;;12.57;2.30;;;;;;;17.36;87.67;100805.28;5110776;28;20703;-71
2023/07/19 00:04:03;;;;;;;11.60;2.30;;;;;;;17.45;87.28;100805.69;5110801;28;20080;-71
2023/07/19 00:06:28;;;;;;;13.25;2.97;;;;;;;17.52;87.21;100803.66;5111951;28;20478;-71
2023/07/19 00:08:53;;;;;;;22.50;2.95;;;;;;;17.53;87.20;100810.75;5118049;28;20016;-71
2023/07/19 00:11:19;;;;;;;19.40;2.92;;;;;;;17.50;87.49;100806.63;5114472;28;20080;-71
2023/07/19 00:13:44;;;;;;;17.60;2.88;;;;;;;17.54;87.33;100809.66;5110390;28;20031;-71
2023/07/19 00:16:10;;;;;;;16.08;2.95;;;;;;;17.58;87.16;100803.50;5094743;28;20031;-71
2023/07/19 00:18:35;;;;;;;16.48;2.45;;;;;;;17.53;87.52;100802.59;5110103;28;20058;-71
2023/07/19 00:21:01;;;;;;;19.40;3.00;;;;;;;17.36;86.83;100759.84;5111891;28;20076;-71
2023/07/19 00:23:26;;;;;;;22.55;3.88;;;;;;;17.55;87.56;100800.47;5093243;28;20024;-71
2023/07/19 00:25:52;;;;;;;17.60;2.78;;;;;;;17.49;87.34;100791.38;5093529;28;20122;-71
2023/07/19 00:28:17;;;;;;;19.42;3.22;;;;;;;17.60;86.61;100793.19;5094004;28;20032;-71
2023/07/19 00:30:43;;;;;;;19.45;2.95;;;;;;;17.63;nan;100794.59;5111008;28;20129;-71
2023/07/19 00:33:08;;;;;;;14.68;2.25;;;;;;;17.61;85.75;100797.56;5109639;28;20485;-71
2023/07/19 00:35:38;;;;;;;13.90;2.35;;;;;;;17.51;85.54;100785.66;5110187;28;20680;-71
2023/07/19 00:38:04;;;;;;;18.80;3.70;;;;;;;17.53;85.38;100786.25;5110564;28;20354;-71
2023/07/19 00:40:32;;;;;;;19.13;3.05;;;;;;;17.58;85.04;100786.34;5093470;28;20035;-71
2023/07/19 00:42:58;;;;;;;14.57;2.40;;;;;;;17.46;85.41;100772.00;5110738;28;20033;-71
2023/07/19 00:45:25;;;;;;;17.88;2.72;;;;;;;17.53;85.33;100772.66;5093529;28;20027;-71
2023/07/19 00:47:50;;;;;;;16.65;3.58;;;;;;;17.56;85.35;100774.88;5112102;28;20443;-71
2023/07/19 00:50:17;;;;;;;13.88;3.10;;;;;;;17.53;85.29;100761.78;5111044;28;20085;-71
2023/07/19 00:52:42;;;;;;;18.08;2.72;;;;;;;17.49;85.82;100768.78;5110490;28;20487;-71
2023/07/19 00:55:08;;;;;;;11.80;2.30;;;;;;;17.49;85.60;100766.88;5113736;28;20058;-71
2023/07/19 00:57:34;;;;;;;14.30;2.83;;;;;;;17.48;85.41;100767.97;5134269;28;20062;-71
2023/07/19 01:00:00;;;;;;;14.50;2.72;;;;;;;17.44;85.86;100765.97;5118310;28;20068;-71
2023/07/19 01:02:26;;;;;;;22.15;3.15;;;;;;;17.44;85.79;100760.53;5117427;28;20032;-71
2023/07/19 01:04:51;;;;;;;18.23;2.90;;;;;;;17.44;86.04;100761.34;5119357;27;20490;-71
2023/07/19 01:07:17;;;;;;;15.48;2.45;;;;;;;17.36;86.54;100748.97;5134418;27;20362;-71
2023/07/19 01:09:43;;;;;;;17.25;3.28;;;;;;;17.53;86.04;100761.78;5118450;27;20039;-71
2023/07/19 01:12:08;;;;;;;20.05;2.90;;;;;;;17.42;86.61;100752.63;5116542;28;20062;-71
2023/07/19 01:14:34;;;;;;;15.10;2.67;;;;;;;17.44;86.68;100755.09;5118086;27;20024;-71
2023/07/19 01:17:00;;;;;;;13.32;2.03;;;;;;;17.21;86.96;100729.66;5116962;28;20035;-71
2023/07/19 01:19:26;;;;;;;15.40;2.25;;;;;;;17.43;86.16;100753.44;5117416;28;20059;-71
2023/07/19 01:21:55;;;;;;;17.17;3.10;;;;;;;17.48;85.31;100761.69;5118351;27;20035;-71
2023/07/19 01:24:20;;;;;;;18.42;2.67;;;;;;;17.39;85.57;100755.84;5118778;27;20019;-71
2023/07/19 01:26:46;;;;;;;16.52;2.50;;;;;;;17.38;85.51;100752.28;5117922;27;20043;-70
2023/07/19 01:29:11;;;;;;;22.70;3.30;;;;;;;17.41;85.49;100747.41;5117174;28;20486;-71
2023/07/19 01:31:37;;;;;;;17.15;3.30;;;;;;;17.33;85.51;100745.94;5123075;28;20032;-71
2023/07/19 01:34:02;;;;;;;20.48;2.42;;;;;;;17.38;85.58;100737.84;5117787;28;20094;-71
2023/07/19 01:36:27;;;;;;;14.27;2.50;;;;;;;17.38;85.97;100748.72;5125108;27;20034;-70
2023/07/19 01:38:53;;;;;;;16.88;2.35;;;;;;;17.35;86.14;100741.91;5117881;27;20027;-71
2023/07/19 01:41:19;;;;;;;17.23;2.95;;;;;;;17.20;86.29;100717.16;5118026;27;20542;-71
2023/07/19 01:43:45;;;;;;;16.70;2.60;;;;;;;17.38;85.96;100746.84;5118417;28;20027;-71
2023/07/19 01:46:10;;;;;;;17.98;2.63;;;;;;;17.38;85.90;100741.41;5117173;28;20122;-71
2023/07/19 01:48:36;;;;;;;11.98;2.42;;;;;;;17.28;86.56;100745.81;5115552;28;20056;-71
2023/07/19 01:51:02;;;;;;;13.50;2.70;;;;;;;17.38;85.77;100729.69;5116781;28;20055;-71
2023/07/19 01:53:28;;;;;;;12.45;2.50;;;;;;;17.36;85.87;100735.38;5115722;27;20555;-71
2023/07/19 01:55:55;;;;;;;12.68;2.30;;;;;;;17.33;85.72;100726.88;5116983;27;20031;-71
2023/07/19 01:58:20;;;;;;;12.05;2.40;;;;;;;17.36;85.51;100727.22;5116217;28;20363;-71
2023/07/19 02:00:46;;;;;;;18.30;2.72;;;;;;;17.34;85.29;100718.47;5107384;28;20031;-71
2023/07/19 02:03:11;;;;;;;13.13;2.58;;;;;;;17.36;85.27;100716.34;5134828;27;20016;-71
2023/07/19 02:05:37;;;;;;;15.90;2.10;;;;;;;17.49;85.16;100736.16;5128382;28;20031;-71
2023/07/19 02:08:03;;;;;;;8.73;1.75;;;;;;;17.26;84.41;100699.84;5112790;28;20055;-71
2023/07/19 02:10:28;;;;;;;11.80;2.00;;;;;;;17.32;84.11;100723.34;5112884;28;20351;-71
2023/07/19 02:12:54;;;;;;;9.43;1.92;;;;;;;17.37;83.99;100733.47;5114524;28;20031;-71
2023/07/19 02:15:19;;;;;;;10.52;2.22;;;;;;;17.35;83.13;100719.28;5122114;28;20038;-71
2023/07/19 02:17:45;;;;;;;5.55;1.38;;;;;;;17.19;82.47;100712.78;5114141;28;20445;-71
2023/07/19 02:20:12;;;;;;;9.95;1.55;;;;;;;17.29;82.02;100725.75;5113070;28;20023;-71
2023/07/19 02:22:39;;;;;;;7.93;1.65;;;;;;;17.29;82.04;100725.75;5113084;28;20102;-71
2023/07/19 02:25:05;;;;;;;9.38;1.42;;;;;;;17.34;82.07;100725.81;5112977;28;20036;-71
2023/07/19 02:27:30;;;;;;;16.15;2.50;;;;;;;17.27;82.67;100723.25;5112675;28;20031;-72
2023/07/19 02:29:56;;;;;;;9.25;1.60;;;;;;;17.34;82.81;100715.75;5113002;28;20089;-71
2023/07/19 02:32:21;;;;;;;9.02;1.60;;;;;;;17.36;82.72;100705.47;5119610;28;20032;-71
2023/07/19 02:34:47;;;;;;;7.80;1.55;;;;;;;17.30;82.97;100700.19;5098072;28;20028;-71
2023/07/19 02:37:12;;;;;;;11.57;1.60;;;;;;;17.29;83.80;100712.97;5095626;28;20460;-71
2023/07/19 02:39:38;;;;;;;9.60;1.60;;;;;;;17.38;83.33;100711.50;5112449;28;20035;-71
2023/07/19 02:42:04;;;;;;;7.72;1.42;;;;;;;17.25;83.26;100714.53;5095685;28;20096;-71
2023/07/19 02:44:29;;;;;;;6.82;1.55;;;;;;;17.29;82.17;100712.97;5078985;28;20027;-71
2023/07/19 02:46:55;;;;;;;8.05;1.48;;;;;;;17.30;82.64;100711.88;5095658;28;20045;-71
2023/07/19 02:49:23;;;;;;;9.77;1.50;;;;;;;17.33;82.11;100705.13;5095720;28;20223;-71
2023/07/19 02:51:48;;;;;;;8.10;1.83;;;;;;;17.44;81.17;100704.22;5112663;28;20027;-71
2023/07/19 02:54:14;;;;;;;5.93;1.85;;;;;;;17.35;82.75;100692.94;5112328;28;20034;-71
2023/07/19 02:56:40;;;;;;;6.93;1.42;;;;;;;17.44;83.55;100704.22;5112448;28;20039;-71
2023/07/19 02:59:05;;;;;;;9.82;1.77;;;;;;;17.42;83.78;100703.66;5104317;28;20016;-71
2023/07/19 03:01:30;;;;;;;9.13;1.70;;;;;;;17.40;83.82;100699.53;5126265;28;20105;-72
2023/07/19 03:03:57;;;;;;;8.10;1.75;;;;;;;17.49;82.94;100703.50;5095930;28;20053;-71
2023/07/19 03:06:22;;;;;;;9.05;1.10;;;;;;;17.37;81.68;100690.78;5113167;28;20038;-71
2023/07/19 03:08:48;;;;;;;8.38;1.50;;;;;;;17.43;80.42;100680.81;5111546;28;20339;-71
2023/07/19 03:11:14;;;;;;;11.93;1.50;;;;;;;17.53;80.37;100696.47;5113449;28;20469;-71
2023/07/19 03:13:39;;;;;;;10.57;1.70;;;;;;;17.68;79.65;100698.59;5094357;28;20024;-71
2023/07/19 03:16:05;;;;;;;8.82;1.48;;;;;;;17.58;80.37;100699.25;5113477;28;20050;-71
2023/07/19 03:18:30;;;;;;;7.60;1.50;;;;;;;17.52;80.43;100690.22;5112120;28;20461;-71
2023/07/19 03:21:00;;;;;;;12.15;1.85;;;;;;;17.54;80.55;100685.34;5112445;28;20039;-71
2023/07/19 03:23:26;;;;;;;10.73;1.85;;;;;;;17.65;80.73;100689.06;5112241;28;20023;-71
2023/07/19 03:25:53;;;;;;;9.85;1.67;;;;;;;17.55;80.76;100678.84;5095107;28;20509;-71
2023/07/19 03:28:18;;;;;;;9.70;1.50;;;;;;;17.55;81.20;100680.75;5094809;28;20478;-71
2023/07/19 03:30:44;;;;;;;11.82;1.90;;;;;;;17.60;81.80;100686.25;5094760;28;20367;-70
2023/07/19 03:33:09;;;;;;;9.10;1.52;;;;;;;17.79;80.85;100682.22;5094679;28;20038;-71
2023/07/19 03:35:34;;;;;;;10.13;2.00;;;;;;;17.99;79.51;100686.31;5112157;28;20027;-71
2023/07/19 03:38:00;;;;;;;8.48;1.40;;;;;;;17.74;78.75;100681.28;5095142;28;20038;-71
2023/07/19 03:40:25;;;;;;;9.05;1.42;;;;;;;17.66;78.74;100684.44;5095555;28;20046;-71
2023/07/19 03:42:51;;;;;;;9.45;1.27;;;;;;;17.67;78.74;100694.25;5102394;28;20123;-71
2023/07/19 03:45:17;;;;;;;8.23;1.38;;;;;;;17.78;78.65;100683.31;5113859;28;20047;-71
2023/07/19 03:47:42;;;;;;;8.07;1.10;;;;;;;17.69;78.71;100681.22;5111703;28;20059;-71
2023/07/19 03:50:08;;;;;;;11.13;1.77;;;;;;;17.57;78.39;100667.69;5113155;28;20506;-70
2023/07/19 03:52:33;;;;;;;6.90;1.40;;;;;;;17.61;78.93;100687.88;5113016;28;20513;-70
2023/07/19 03:54:59;;;;;;;12.23;1.88;;;;;;;17.61;78.80;100686.03;5110916;28;20034;-71
2023/07/19 03:57:25;;;;;;;9.32;1.23;;;;;;;17.53;79.76;100677.44;5114378;28;20031;-71
2023/07/19 03:59:50;;;;;;;7.30;1.10;;;;;;;17.54;79.01;100666.28;5096186;28;20401;-71
2023/07/19 04:02:15;;;;;;;6.22;1.40;;;;;;;17.43;78.93;100674.56;5111930;28;20463;-71
2023/07/19 04:04:41;;;;;;;7.13;1.20;;;;;;;17.47;77.85;100672.97;5113044;28;20028;-71
2023/07/19 04:07:06;;;;;;;9.32;1.27;;;;;;;17.58;78.79;100663.91;5111994;28;20056;-71
2023/07/19 04:09:32;;;;;;;6.60;1.17;;;;;;;17.44;78.75;100644.38;5112473;28;20031;-71
2023/07/19 04:11:57;;;;;;;7.95;2.00;;;;;;;17.56;79.05;100666.88;5111692;28;20023;-71
2023/07/19 04:14:23;;;;;;;5.85;1.08;;;;;;;17.50;79.23;100645.28;5110795;28;20038;-70
2023/07/19 04:16:48;;;;;;;6.95;1.40;;;;;;;17.68;78.37;100657.78;5110908;28;20382;-71
2023/07/19 04:19:14;;;;;;;6.47;1.30;;;;;;;17.72;77.64;100656.22;5110757;28;20040;-71
2023/07/19 04:21:39;;;;;;;8.93;1.40;;;;;;;17.63;77.58;100661.25;5110758;28;20536;-71
2023/07/19 04:24:05;;;;;;;6.75;1.40;;;;;;;17.55;78.05;100654.34;5110493;28;20023;-71
2023/07/19 04:26:30;;;;;;;13.07;1.33;;;;;;;17.76;78.09;100662.81;5110723;28;20039;-71
2023/07/19 04:28:57;;;;;;;6.05;1.10;;;;;;;17.76;78.42;100665.53;5111489;28;20379;-71
2023/07/19 04:31:23;;;;;;;7.13;1.58;;;;;;;17.74;79.11;100662.22;5112212;28;20036;-71
2023/07/19 04:33:49;;;;;;;17.55;2.42;;;;;;;17.72;79.05;100658.97;5109977;28;20039;-71
2023/07/19 04:36:15;;;;;;;11.43;1.30;;;;;;;17.70;78.75;100653.75;5111037;28;20551;-71
2023/07/19 04:38:42;;;;;;;16.63;2.33;;;;;;;17.65;78.87;100641.94;5110436;28;20027;-71
2023/07/19 04:41:08;;;;;;;7.22;1.50;;;;;;;18.22;76.51;100656.13;5112031;28;20035;-71
2023/07/19 04:43:33;;;;;;;10.52;2.13;;;;;;;18.10;76.33;100663.56;5111978;28;20092;-71
2023/07/19 04:45:59;;;;;;;6.35;1.40;;;;;;;17.79;77.19;100635.13;5110364;28;20489;-71
2023/07/19 04:48:24;;;;;;;8.38;1.45;;;;;;;18.08;76.87;100660.31;5093695;28;20043;-71
2023/07/19 04:50:53;;;;;;;5.53;1.52;;;;;;;19.01;73.41;100668.47;5112100;28;20026;-71
2023/07/19 04:53:21;;;;;;;9.02;1.67;;;;;;;18.60;74.10;100643.47;5110330;28;20039;-71
2023/07/19 04:55:46;;;;;;;7.55;1.48;;;;;;;18.56;74.88;100661.41;5111132;28;20027;-71
2023/07/19 04:58:13;;;;;;;11.95;1.92;;;;;;;19.74;69.70;100652.41;5110217;28;20028;-71
2023/07/19 05:00:38;;;;;;;5.38;1.13;;;;;;;20.66;64.61;100650.06;5110650;28;20027;-71
2023/07/19 05:03:04;;;;;;;10.15;1.50;;;;;;;20.75;62.30;100628.50;5110764;28;20572;-71
2023/07/19 05:05:29;;;;;;;9.65;1.63;;;;;;;20.32;65.31;100649.66;5113427;28;20028;-71
2023/07/19 05:07:54;;;;;;;7.68;1.38;;;;;;;20.61;64.13;100652.81;5110060;28;20069;-71
2023/07/19 05:10:21;;;;;;;7.95;1.38;;;;;;;19.88;67.95;100644.56;5099288;28;20056;-71
2023/07/19 05:12:47;;;;;;;8.45;1.83;;;;;;;19.48;69.85;100646.75;5111803;28;20031;-71
2023/07/19 05:15:12;;;;;;;11.43;1.83;;;;;;;19.13;71.25;100619.19;5110635;28;20031;-71
2023/07/19 05:17:38;;;;;;;9.35;1.83;;;;;;;19.42;70.64;100638.78;5091286;28;20073;-71
2023/07/19 05:20:05;;;;;;;12.50;2.50;;;;;;;19.31;70.68;100642.53;5090095;28;20032;-71
2023/07/19 05:22:31;;;;;;;13.45;2.50;;;;;;;19.29;71.57;100647.41;5089666;28;20032;-71
2023/07/19 05:24:57;;;;;;;9.43;2.00;;;;;;;19.32;71.76;100644.16;5090084;28;20038;-71
2023/07/19 05:27:23;;;;;;;14.35;1.85;;;;;;;19.25;71.83;100647.09;5090388;28;20025;-71
2023/07/19 05:29:49;;;;;;;13.88;2.47;;;;;;;19.12;71.72;100633.91;5109476;28;20098;-71
2023/07/19 05:32:16;;;;;;;8.98;1.60;;;;;;;19.04;71.86;100627.03;5097766;28;20119;-71
2023/07/19 05:34:41;;;;;;;9.23;1.60;;;;;;;18.97;72.44;100642.75;5089460;28;20062;-71
2023/07/19 05:37:07;;;;;;;9.63;2.15;;;;;;;18.93;73.08;100652.56;5090069;28;20067;-71
2023/07/19 05:39:36;;;;;;;11.88;1.65;;;;;;;18.75;74.28;100646.38;5106808;28;20032;-71
2023/07/19 05:42:02;;;;;;;9.75;2.00;;;;;;;18.66;74.43;100647.06;5092114;28;20043;-70
2023/07/19 05:44:28;;;;;;;9.95;1.52;;;;;;;18.43;74.75;100650.91;5094633;28;20402;-71
2023/07/19 05:46:53;;;;;;;10.05;1.60;;;;;;;18.32;74.68;100625.47;5094732;28;20030;-71
2023/07/19 05:49:19;;;;;;;8.55;2.17;;;;;;;18.42;74.07;100647.38;5110579;28;20063;-71
2023/07/19 05:51:45;;;;;;;6.68;1.52;;;;;;;18.40;73.63;100643.25;5097385;28;20168;-71
2023/07/19 05:54:10;;;;;;;5.75;1.30;;;;;;;18.45;73.57;100651.50;5095095;28;20032;-71
2023/07/19 05:56:36;;;;;;;6.60;1.27;;;;;;;18.33;74.49;100650.78;5093638;28;20036;-70
2023/07/19 05:59:02;;;;;;;7.18;1.52;;;;;;;18.25;73.90;100641.19;5093390;28;20103;-70
2023/07/19 06:01:29;;;;;;;9.15;1.63;;;;;;;18.39;73.65;100650.59;5094563;28;20032;-70
2023/07/19 06:03:54;;;;;;;6.97;1.20;;;;;;;18.15;74.08;100650.03;5093524;28;20024;-71
2023/07/19 06:06:19;;;;;;;6.13;1.50;;;;;;;18.24;73.05;100651.22;5092812;28;20031;-71
2023/07/19 06:08:45;;;;;;;5.82;1.20;;;;;;;18.22;70.93;100652.56;5095550;28;20030;-70
2023/07/19 06:11:11;;;;;;;8.18;1.50;;;;;;;18.15;70.18;100660.94;5106564;28;20047;-71
2023/07/19 06:13:36;;;;;;;7.30;1.20;;;;;;;18.21;70.20;100654.47;5095381;28;20089;-71
2023/07/19 06:16:01;;;;;;;5.15;0.90;;;;;;;18.31;70.49;100656.50;5110151;28;20024;-71
2023/07/19 06:18:27;;;;;;;6.55;1.20;;;;;;;18.44;70.50;100660.72;5092799;28;20027;-70
2023/07/19 06:20:53;;;;;;;5.38;0.90;;;;;;;18.20;69.79;100671.06;5075807;28;20036;-70
2023/07/19 06:23:18;;;;;;;5.35;0.85;;;;;;;18.10;69.22;100673.66;5098498;28;20030;-71
2023/07/19 06:25:48;;;;;;;5.63;1.23;;;;;;;18.29;68.25;100667.66;5093421;28;20040;-71
2023/07/19 06:28:14;;;;;;;5.90;1.38;;;;;;;18.29;68.27;100666.81;5073778;28;20029;-71
2023/07/19 06:30:40;;;;;;;7.57;1.30;;;;;;;18.61;67.18;100677.84;5089857;28;20040;-71
2023/07/19 06:33:06;;;;;;;5.35;0.95;;;;;;;18.46;67.46;100653.94;5084317;28;20073;-72
2023/07/19 06:35:33;;;;;;;3.65;0.90;;;;;;;18.77;67.24;100671.50;5094741;28;20164;-72
2023/07/19 06:37:59;;;;;;;4.13;1.00;;;;;;;18.95;67.09;100678.47;5093696;28;20046;-72
2023/07/19 06:40:26;;;;;;;2.97;1.00;;;;;;;18.61;65.09;100647.00;5092096;28;20056;-71
2023/07/19 06:42:52;;;;;;;3.70;1.00;;;;;;;18.86;65.92;100679.19;5090889;28;20028;-71
2023/07/19 06:45:18;;;;;;;5.18;1.10;;;;;;;18.90;65.71;100681.16;5074136;28;20085;-72
2023/07/19 06:47:43;;;;;;;7.32;1.35;;;;;;;18.94;65.49;100671.41;5098418;28;20132;-71
2023/07/19 06:50:09;;;;;;;7.53;1.02;;;;;;;19.01;64.95;100663.00;5074010;28;20031;-71
2023/07/19 06:52:35;;;;;;;6.57;1.13;;;;;;;19.28;63.89;100681.25;5103721;28;20041;-72
2023/07/19 06:55:00;;;;;;;4.72;1.15;;;;;;;19.02;63.93;100679.09;5094401;28;20020;-74
2023/07/19 06:57:25;;;;;;;8.00;1.10;;;;;;;18.94;64.48;100643.28;5067470;28;20035;-72
2023/07/19 06:59:52;;;;;;;4.75;1.42;;;;;;;18.99;64.40;100682.34;5071993;28;20090;-73
2023/07/19 07:02:20;;;;;;;8.18;1.30;;;;;;;18.91;63.43;100684.72;5055693;28;20164;-72
2023/07/19 07:04:46;;;;;;;7.15;0.98;;;;;;;18.66;63.59;100669.69;5072311;28;20467;-75
2023/07/19 07:07:14;;;;;;;6.50;1.25;;;;;;;18.18;64.65;100678.66;5089221;28;20111;-73
2023/07/19 07:09:40;;;;;;;2.90;1.00;;;;;;;18.21;64.07;100695.34;5071775;28;20127;-73
2023/07/19 07:12:06;;;;;;;6.82;1.20;;;;;;;18.32;64.63;100679.94;5096925;28;20028;-73
2023/07/19 07:14:32;;;;;;;4.55;0.88;;;;;;;18.63;64.29;100686.56;5056423;28;20036;-73
2023/07/19 07:16:58;;;;;;;5.80;1.52;;;;;;;18.91;63.37;100692.91;5072368;28;20426;-73
2023/07/19 07:19:25;;;;;;;8.15;1.20;;;;;;;18.72;63.87;100679.63;5055277;28;20032;-72
2023/07/19 07:21:51;;;;;;;2.78;0.60;;;;;;;18.81;63.37;100685.44;5095612;28;20035;-73
2023/07/19 07:24:16;;;;;;;3.10;0.82;;;;;;;18.74;61.31;100690.25;5091468;28;20057;-73
2023/07/19 07:26:42;;;;;;;9.13;2.45;;;;;;;18.69;63.52;100674.63;5086494;28;20430;-72
2023/07/19 07:29:07;;;;;;;3.08;1.02;;;;;;;18.31;64.83;100689.19;5071725;28;20116;-73
2023/07/19 07:31:33;;;;;;;5.22;1.20;;;;;;;18.51;65.74;100688.63;5070681;28;20094;-73
2023/07/19 07:33:59;;;;;;;3.35;1.05;;;;;;;18.65;63.10;100694.50;5082524;28;20044;-72
2023/07/19 07:36:24;;;;;;;4.85;1.23;;;;;;;19.05;60.56;100696.03;5074614;28;20028;-72
2023/07/19 07:38:50;;;;;;;7.88;1.45;;;;;;;19.01;62.42;100698.47;5079708;28;20123;-73
2023/07/19 07:41:16;;;;;;;3.50;1.10;;;;;;;19.22;63.47;100711.19;5087118;28;20034;-73
2023/07/19 07:43:42;;;;;;;7.30;1.35;;;;;;;19.01;62.79;100696.53;5071574;28;20024;-73
2023/07/19 07:46:07;;;;;;;6.15;1.10;;;;;;;19.20;61.67;100721.56;5078021;28;20024;-73
2023/07/19 07:48:32;;;;;;;3.10;1.00;;;;;;;19.17;60.68;100708.44;5116394;28;20063;-73
2023/07/19 07:50:58;;;;;;;2.38;0.85;;;;;;;19.03;60.02;100704.44;5117104;28;20483;-73
2023/07/19 07:53:24;;;;;;;5.50;1.40;;;;;;;19.27;61.48;100709.59;5110471;28;20119;-73
2023/07/19 07:55:49;;;;;;;4.95;1.25;;;;;;;19.33;63.08;100711.28;5075184;28;20039;-73
2023/07/19 07:58:15;;;;;;;9.20;1.45;;;;;;;18.95;63.04;100715.84;5092443;28;20554;-73
2023/07/19 08:00:41;;;;;;;5.43;1.20;;;;;;;19.01;61.96;100718.38;5093033;28;20036;-73
2023/07/19 08:03:08;;;;;;;3.22;1.02;;;;;;;19.25;62.04;100701.66;5092270;28;20404;-72
2023/07/19 08:05:40;;;;;;;3.90;1.20;;;;;;;19.41;62.07;100706.19;5093681;28;20027;-73
2023/07/19 08:08:11;;;;;;;4.97;1.20;;;;;;;19.35;62.50;100714.59;5076742;28;20035;-73
2023/07/19 08:10:40;;;;;;;6.05;1.17;;;;;;;19.13;62.54;100718.19;5081280;28;20044;-73
2023/07/19 08:13:07;;;;;;;4.82;1.00;;;;;;;19.07;62.24;100727.41;5073399;28;20055;-73
2023/07/19 08:15:33;;;;;;;5.15;1.10;;;;;;;19.34;60.29;100716.50;5080346;28;20039;-73
2023/07/19 08:17:59;;;;;;;2.72;1.02;;;;;;;19.53;59.66;100710.63;5073763;28;20028;-73
2023/07/19 08:20:25;;;;;;;5.53;1.23;;;;;;;19.33;59.70;100708.56;5072702;28;20051;-73
2023/07/19 08:22:51;;;;;;;4.35;1.00;;;;;;;19.36;59.04;100718.94;5071051;28;20123;-73
2023/07/19 08:25:19;;;;;;;3.08;1.10;;;;;;;18.67;59.52;100665.06;5084943;28;20038;-72
2023/07/19 08:27:44;;;;;;;3.25;1.00;;;;;;;19.30;57.99;100717.25;5080017;28;20509;-73
2023/07/19 08:30:15;;;;;;;5.82;1.27;;;;;;;19.01;60.54;100707.44;5086917;28;20106;-72
2023/07/19 08:32:45;;;;;;;3.00;1.00;;;;;;;19.11;61.19;100714.09;5092318;28;20092;-73
2023/07/19 08:35:12;;;;;;;4.38;1.05;;;;;;;19.19;60.59;100705.44;5082701;28;20016;-73
2023/07/19 08:37:38;;;;;;;5.90;1.40;;;;;;;19.25;61.12;100721.59;5087921;28;20031;-73
2023/07/19 08:40:03;;;;;;;3.42;1.20;;;;;;;19.25;60.53;100698.94;5094488;28;20077;-73
2023/07/19 08:42:29;;;;;;;6.68;1.58;;;;;;;19.33;61.46;100711.28;5091376;28;20118;-73
2023/07/19 08:44:54;;;;;;;6.70;1.00;;;;;;;19.56;60.35;100729.22;5082572;28;20024;-73
2023/07/19 08:47:20;;;;;;;3.50;0.85;;;;;;;19.47;59.75;100723.44;5079759;28;20056;-73
2023/07/19 08:49:46;;;;;;;3.47;1.10;;;;;;;19.38;59.27;100728.53;5086644;28;20060;-73
2023/07/19 08:52:13;;;;;;;3.17;1.10;;;;;;;19.49;60.13;100732.16;5072311;28;20505;-73
2023/07/19 08:54:38;;;;;;;6.55;1.48;;;;;;;19.57;60.71;100711.75;5070293;28;20025;-73
2023/07/19 08:57:05;;;;;;;5.85;0.90;;;;;;;19.63;60.09;100722.47;5057245;28;20031;-73
2023/07/19 08:59:34;;;;;;;5.13;1.00;;;;;;;19.63;60.41;100711.56;5070818;28;20040;-73
2023/07/19 09:02:03;;;;;;;7.75;1.35;;;;;;;19.69;61.70;100724.16;5084484;28;20028;-73
2023/07/19 09:04:28;;;;;;;5.65;1.13;;;;;;;19.56;62.06;100721.84;5088302;28;20475;-73
2023/07/19 09:06:54;;;;;;;6.38;1.35;;;;;;;19.59;61.60;100720.50;5093610;28;20029;-73
2023/07/19 09:09:19;;;;;;;6.70;1.42;;;;;;;19.81;62.22;100723.97;5105548;28;20025;-73
2023/07/19 09:11:49;;;;;;;5.10;1.10;;;;;;;19.62;59.73;100715.34;5082275;28;20033;-73
2023/07/19 09:14:15;;;;;;;4.10;1.38;;;;;;;19.63;59.53;100710.69;5084794;28;20025;-73
2023/07/19 09:16:40;;;;;;;5.57;1.20;;;;;;;19.54;61.89;100687.72;5086655;28;20035;-73
2023/07/19 09:19:07;;;;;;;4.50;1.15;;;;;;;19.90;62.13;100713.38;5077325;28;20515;-73
2023/07/19 09:21:36;;;;;;;5.22;1.23;;;;;;;19.78;62.12;100701.84;5098530;28;20084;-72
2023/07/19 09:24:06;;;;;;;5.97;1.42;;;;;;;20.06;61.40;100712.38;5109262;28;20031;-73
2023/07/19 09:26:49;;;;;;;5.78;1.40;;;;;;;19.87;60.19;100712.00;5094480;28;20524;-73
2023/07/19 09:29:15;;;;;;;6.07;1.60;;;;;;;19.92;61.11;100717.50;5093827;28;20490;-72
2023/07/19 09:31:53;;;;;;;9.63;1.27;;;;;;;20.16;61.90;100715.19;5075509;28;20123;-73
2023/07/19 09:34:20;;;;;;;5.85;1.13;;;;;;;20.03;61.48;100723.84;5077373;28;20390;-73
2023/07/19 09:36:46;;;;;;;3.35;1.00;;;;;;;19.92;59.16;100700.28;5075916;28;20056;-73
2023/07/19 09:39:11;;;;;;;9.20;1.50;;;;;;;20.17;60.08;100705.09;5073705;28;20060;-73
2023/07/19 09:41:38;;;;;;;5.07;1.35;;;;;;;19.90;61.25;100718.84;5075140;28;20050;-73
2023/07/19 09:44:09;;;;;;;4.60;1.33;;;;;;;19.71;60.95;100705.63;5088800;28;20024;-73
2023/07/19 09:46:36;;;;;;;7.15;1.42;;;;;;;19.97;61.46;100716.72;5083010;28;20028;-73
2023/07/19 09:49:01;;;;;;;5.07;1.20;;;;;;;19.92;60.93;100719.41;5074935;28;20049;-73
2023/07/19 09:51:28;;;;;;;4.78;1.05;;;;;;;19.85;60.16;100691.50;5057737;28;20048;-73
2023/07/19 09:53:54;;;;;;;6.38;1.40;;;;;;;19.71;60.72;100707.53;5078450;28;20032;-73
2023/07/19 09:56:19;;;;;;;5.25;1.25;;;;;;;19.84;61.81;100720.72;5040060;28;20035;-73
2023/07/19 09:58:45;;;;;;;4.20;1.10;;;;;;;19.82;61.86;100692.03;5056647;28;20042;-73
2023/07/19 10:01:11;;;;;;;4.57;0.90;;;;;;;19.56;61.43;100705.47;5073235;28;20465;-73
2023/07/19 10:03:36;;;;;;;5.07;1.60;;;;;;;19.53;62.87;100708.72;5056360;28;20039;-73
2023/07/19 10:06:02;;;;;;;5.93;1.30;;;;;;;19.40;62.10;100728.25;5074194;28;20035;-72
2023/07/19 10:08:28;;;;;;;7.93;1.30;;;;;;;19.66;63.35;100721.94;5072950;28;20040;-73
2023/07/19 10:10:57;;;;;;;5.40;1.30;;;;;;;19.58;63.22;100714.22;5074230;28;20035;-73
2023/07/19 10:13:52;;;;;;;5.63;1.40;;;;;;;19.88;63.40;100719.09;5073252;28;20051;-73
2023/07/19 10:16:31;;;;;;;8.13;1.10;;;;;;;20.06;63.09;100720.56;5082810;28;20470;-73
2023/07/19 10:19:20;;;;;;;4.45;0.93;;;;;;;19.71;62.41;100713.81;5091731;28;20063;-73
2023/07/19 10:22:04;;;;;;;7.10;1.17;;;;;;;19.96;62.18;100715.06;5097617;28;20036;-73
2023/07/19 10:24:31;;;;;;;6.30;1.08;;;;;;;19.97;60.37;100713.13;5056705;28;20051;-73
2023/07/19 10:26:59;;;;;;;5.75;1.50;;;;;;;20.00;62.44;100707.16;5088250;28;20044;-73
2023/07/19 10:29:25;;;;;;;5.78;1.20;;;;;;;19.77;63.64;100714.69;5090215;28;20033;-74
2023/07/19 10:31:50;;;;;;;5.97;1.20;;;;;;;20.11;63.42;100720.63;5091453;28;20042;-73
2023/07/19 10:34:16;;;;;;;4.63;1.15;;;;;;;20.21;62.70;100717.13;5086452;28;20032;-73
2023/07/19 10:36:47;;;;;;;7.05;1.48;;;;;;;19.85;63.17;100721.53;5071605;28;20086;-73
2023/07/19 10:39:13;;;;;;;4.43;1.08;;;;;;;19.89;62.08;100715.28;5089233;28;20487;-72
2023/07/19 10:41:38;;;;;;;7.07;1.30;;;;;;;20.05;63.08;100723.59;5103543;28;20028;-73
2023/07/19 10:44:03;;;;;;;6.60;1.02;;;;;;;20.28;61.18;100717.69;5081773;28;20044;-72
2023/07/19 10:46:29;;;;;;;6.78;1.70;;;;;;;20.21;61.62;100719.03;5039081;28;20107;-72
2023/07/19 10:48:55;;;;;;;6.28;1.73;;;;;;;20.36;61.23;100713.63;5072243;28;20048;-73
2023/07/19 10:51:20;;;;;;;7.70;1.40;;;;;;;20.62;61.49;100714.59;5056003;28;20124;-73
2023/07/19 10:53:50;;;;;;;5.53;1.13;;;;;;;20.41;61.69;100713.66;5072832;28;20041;-73
2023/07/19 10:56:16;;;;;;;6.03;1.38;;;;;;;20.15;60.90;100712.72;5072465;28;20445;-72
2023/07/19 10:58:42;;;;;;;4.95;1.10;;;;;;;20.02;60.87;100713.19;5077330;28;20030;-73
2023/07/19 11:01:08;;;;;;;6.75;1.30;;;;;;;20.26;61.22;100705.38;5073989;28;20462;-75
2023/07/19 11:03:33;;;;;;;5.53;1.10;;;;;;;20.36;61.85;100713.63;5072888;28;20016;-74
2023/07/19 11:05:59;;;;;;;6.85;1.95;;;;;;;20.38;61.80;100711.47;5041550;28;20033;-74
2023/07/19 11:08:29;;;;;;;8.13;1.73;;;;;;;19.91;63.74;100691.28;5081461;28;20019;-74
2023/07/19 11:10:56;;;;;;;5.68;1.10;;;;;;;19.79;64.28;100700.75;5092544;28;20024;-74
2023/07/19 11:13:24;;;;;;;5.47;1.27;;;;;;;19.75;63.78;100714.09;5092579;28;20454;-75
2023/07/19 11:15:54;;;;;;;7.22;1.45;;;;;;;20.15;63.54;100712.72;5092976;28;20032;-74
2023/07/19 11:18:23;;;;;;;3.88;0.90;;;;;;;19.63;63.61;100706.09;5092395;28;20054;-74